sensor_id;sensor_type;location;lat;lon;timestamp;temperature;humidity
5210;DHT22;2624;48.048;11.706;2022-08-18T00:02:24;24.40;89.60
5210;DHT22;2624;48.048;11.706;2022-08-18T00:12:33;24.00;89.90
5210;DHT22;2624;48.048;11.706;2022-08-18T00:17:35;24.10;89.10
5210;DHT22;2624;48.048;11.706;2022-08-18T00:22:37;24.30;87.90
5210;DHT22;2624;48.048;11.706;2022-08-18T00:27:41;24.20;89.20
5210;DHT22;2624;48.048;11.706;2022-08-18T00:32:47;24.00;90.00
5210;DHT22;2624;48.048;11.706;2022-08-18T00:37:49;24.00;90.90
5210;DHT22;2624;48.048;11.706;2022-08-18T00:42:54;23.50;91.30
5210;DHT22;2624;48.048;11.706;2022-08-18T00:47:57;23.80;91.20
5210;DHT22;2624;48.048;11.706;2022-08-18T00:53:02;23.60;91.40
5210;DHT22;2624;48.048;11.706;2022-08-18T00:58:10;23.50;91.30
5210;DHT22;2624;48.048;11.706;2022-08-18T01:03:16;23.40;91.90
5210;DHT22;2624;48.048;11.706;2022-08-18T01:08:19;23.10;92.50
5210;DHT22;2624;48.048;11.706;2022-08-18T01:13:25;23.10;92.80
5210;DHT22;2624;48.048;11.706;2022-08-18T01:18:28;22.90;93.40
5210;DHT22;2624;48.048;11.706;2022-08-18T01:23:49;22.90;93.10
5210;DHT22;2624;48.048;11.706;2022-08-18T01:28:52;22.70;94.10
5210;DHT22;2624;48.048;11.706;2022-08-18T01:33:53;22.70;93.50
5210;DHT22;2624;48.048;11.706;2022-08-18T01:38:58;22.70;93.60
5210;DHT22;2624;48.048;11.706;2022-08-18T01:44:01;22.30;94.90
5210;DHT22;2624;48.048;11.706;2022-08-18T01:49:03;22.40;94.90
5210;DHT22;2624;48.048;11.706;2022-08-18T01:54:12;22.30;94.80
5210;DHT22;2624;48.048;11.706;2022-08-18T01:59:14;22.50;94.00
5210;DHT22;2624;48.048;11.706;2022-08-18T02:04:17;22.10;95.20
5210;DHT22;2624;48.048;11.706;2022-08-18T02:09:20;22.10;94.80
5210;DHT22;2624;48.048;11.706;2022-08-18T02:14:23;22.00;95.00
5210;DHT22;2624;48.048;11.706;2022-08-18T02:19:24;22.00;94.90
5210;DHT22;2624;48.048;11.706;2022-08-18T02:24:27;22.20;94.30
5210;DHT22;2624;48.048;11.706;2022-08-18T02:29:29;22.00;94.80
5210;DHT22;2624;48.048;11.706;2022-08-18T02:34:31;22.10;94.40
5210;DHT22;2624;48.048;11.706;2022-08-18T02:39:36;22.00;94.30
5210;DHT22;2624;48.048;11.706;2022-08-18T02:44:38;22.00;94.60
5210;DHT22;2624;48.048;11.706;2022-08-18T02:49:40;22.10;93.60
5210;DHT22;2624;48.048;11.706;2022-08-18T02:54:43;21.90;94.20
5210;DHT22;2624;48.048;11.706;2022-08-18T02:59:45;22.10;93.70
5210;DHT22;2624;48.048;11.706;2022-08-18T03:04:47;21.80;94.80
5210;DHT22;2624;48.048;11.706;2022-08-18T03:09:52;21.60;94.90
5210;DHT22;2624;48.048;11.706;2022-08-18T03:14:53;21.70;94.80
5210;DHT22;2624;48.048;11.706;2022-08-18T03:19:55;22.00;93.10
5210;DHT22;2624;48.048;11.706;2022-08-18T03:24:58;22.00;94.10
5210;DHT22;2624;48.048;11.706;2022-08-18T03:30:00;21.60;95.10
5210;DHT22;2624;48.048;11.706;2022-08-18T03:35:03;21.50;94.30
5210;DHT22;2624;48.048;11.706;2022-08-18T03:40:07;21.40;95.40
5210;DHT22;2624;48.048;11.706;2022-08-18T03:45:10;21.70;93.40
5210;DHT22;2624;48.048;11.706;2022-08-18T03:50:12;21.40;95.40
5210;DHT22;2624;48.048;11.706;2022-08-18T03:55:15;21.30;95.00
5210;DHT22;2624;48.048;11.706;2022-08-18T04:00:17;21.10;95.20
5210;DHT22;2624;48.048;11.706;2022-08-18T04:05:19;21.40;95.10
5210;DHT22;2624;48.048;11.706;2022-08-18T04:10:22;21.20;95.50
5210;DHT22;2624;48.048;11.706;2022-08-18T04:15:24;21.30;94.30
5210;DHT22;2624;48.048;11.706;2022-08-18T04:20:25;21.50;93.80
5210;DHT22;2624;48.048;11.706;2022-08-18T04:25:29;21.40;93.50
5210;DHT22;2624;48.048;11.706;2022-08-18T04:30:32;21.60;92.90
5210;DHT22;2624;48.048;11.706;2022-08-18T04:35:33;21.00;94.80
5210;DHT22;2624;48.048;11.706;2022-08-18T04:40:36;21.30;93.40
5210;DHT22;2624;48.048;11.706;2022-08-18T04:45:38;20.90;94.40
5210;DHT22;2624;48.048;11.706;2022-08-18T04:50:40;21.00;94.30
5210;DHT22;2624;48.048;11.706;2022-08-18T04:55:46;21.00;93.60
5210;DHT22;2624;48.048;11.706;2022-08-18T05:00:56;21.30;92.90
5210;DHT22;2624;48.048;11.706;2022-08-18T05:05:58;21.20;92.70
5210;DHT22;2624;48.048;11.706;2022-08-18T05:11:01;21.00;94.70
5210;DHT22;2624;48.048;11.706;2022-08-18T05:16:03;20.90;95.00
5210;DHT22;2624;48.048;11.706;2022-08-18T05:21:07;20.00;98.20
5210;DHT22;2624;48.048;11.706;2022-08-18T05:26:16;20.80;94.10
5210;DHT22;2624;48.048;11.706;2022-08-18T05:31:27;20.80;94.70
5210;DHT22;2624;48.048;11.706;2022-08-18T05:36:49;21.00;94.80
5210;DHT22;2624;48.048;11.706;2022-08-18T05:42:00;20.60;95.30
5210;DHT22;2624;48.048;11.706;2022-08-18T05:47:04;20.80;95.50
5210;DHT22;2624;48.048;11.706;2022-08-18T05:52:11;21.00;94.10
5210;DHT22;2624;48.048;11.706;2022-08-18T05:57:19;20.50;98.00
5210;DHT22;2624;48.048;11.706;2022-08-18T06:02:31;20.80;95.10
5210;DHT22;2624;48.048;11.706;2022-08-18T06:07:36;21.10;94.20
5210;DHT22;2624;48.048;11.706;2022-08-18T06:12:43;21.10;94.90
5210;DHT22;2624;48.048;11.706;2022-08-18T06:18:07;20.70;96.20
5210;DHT22;2624;48.048;11.706;2022-08-18T06:23:21;21.00;94.70
5210;DHT22;2624;48.048;11.706;2022-08-18T06:28:31;20.80;96.60
5210;DHT22;2624;48.048;11.706;2022-08-18T06:33:42;21.00;94.70
5210;DHT22;2624;48.048;11.706;2022-08-18T06:39:06;21.00;94.50
5210;DHT22;2624;48.048;11.706;2022-08-18T06:44:16;21.10;94.30
5210;DHT22;2624;48.048;11.706;2022-08-18T06:49:34;21.10;94.40
5210;DHT22;2624;48.048;11.706;2022-08-18T06:54:41;21.10;94.80
5210;DHT22;2624;48.048;11.706;2022-08-18T06:59:54;21.20;94.40
5210;DHT22;2624;48.048;11.706;2022-08-18T07:05:01;21.10;94.40
5210;DHT22;2624;48.048;11.706;2022-08-18T07:10:06;21.20;94.40
5210;DHT22;2624;48.048;11.706;2022-08-18T07:15:12;21.20;94.50
5210;DHT22;2624;48.048;11.706;2022-08-18T07:20:20;21.30;94.80
5210;DHT22;2624;48.048;11.706;2022-08-18T07:25:25;21.10;95.50
5210;DHT22;2624;48.048;11.706;2022-08-18T07:30:33;21.10;97.40
5210;DHT22;2624;48.048;11.706;2022-08-18T07:35:38;21.00;96.10
5210;DHT22;2624;48.048;11.706;2022-08-18T07:40:45;21.20;95.10
5210;DHT22;2624;48.048;11.706;2022-08-18T07:45:49;21.30;95.20
5210;DHT22;2624;48.048;11.706;2022-08-18T07:50:57;21.30;94.80
5210;DHT22;2624;48.048;11.706;2022-08-18T07:56:04;21.30;95.10
5210;DHT22;2624;48.048;11.706;2022-08-18T08:01:15;21.40;94.80
5210;DHT22;2624;48.048;11.706;2022-08-18T08:06:23;21.50;94.90
5210;DHT22;2624;48.048;11.706;2022-08-18T08:11:38;21.50;95.00
5210;DHT22;2624;48.048;11.706;2022-08-18T08:16:48;21.60;96.80
5210;DHT22;2624;48.048;11.706;2022-08-18T08:21:58;21.70;94.80
5210;DHT22;2624;48.048;11.706;2022-08-18T08:27:08;21.80;94.80
5210;DHT22;2624;48.048;11.706;2022-08-18T08:32:19;21.80;94.90
5210;DHT22;2624;48.048;11.706;2022-08-18T08:37:28;21.90;94.70
5210;DHT22;2624;48.048;11.706;2022-08-18T08:42:39;21.90;95.00
5210;DHT22;2624;48.048;11.706;2022-08-18T08:47:51;22.00;94.70
5210;DHT22;2624;48.048;11.706;2022-08-18T08:52:58;22.00;94.70
5210;DHT22;2624;48.048;11.706;2022-08-18T08:58:10;22.10;94.60
5210;DHT22;2624;48.048;11.706;2022-08-18T09:03:32;22.40;95.70
5210;DHT22;2624;48.048;11.706;2022-08-18T09:09:01;22.40;94.20
5210;DHT22;2624;48.048;11.706;2022-08-18T09:14:23;22.40;94.60
5210;DHT22;2624;48.048;11.706;2022-08-18T09:19:58;22.60;94.40
5210;DHT22;2624;48.048;11.706;2022-08-18T09:25:08;22.50;94.70
5210;DHT22;2624;48.048;11.706;2022-08-18T09:30:42;22.60;94.20
5210;DHT22;2624;48.048;11.706;2022-08-18T09:36:21;22.70;94.30
5210;DHT22;2624;48.048;11.706;2022-08-18T09:41:32;22.90;94.40
5210;DHT22;2624;48.048;11.706;2022-08-18T09:46:54;23.20;93.40
5210;DHT22;2624;48.048;11.706;2022-08-18T09:51:59;23.20;93.40
5210;DHT22;2624;48.048;11.706;2022-08-18T09:57:15;23.10;93.90
5210;DHT22;2624;48.048;11.706;2022-08-18T10:08:25;23.40;93.00
5210;DHT22;2624;48.048;11.706;2022-08-18T10:13:34;23.50;92.70
5210;DHT22;2624;48.048;11.706;2022-08-18T10:18:52;23.50;92.40
5210;DHT22;2624;48.048;11.706;2022-08-18T10:24:03;23.50;92.50
5210;DHT22;2624;48.048;11.706;2022-08-18T10:35:00;23.50;92.30
5210;DHT22;2624;48.048;11.706;2022-08-18T10:40:13;23.50;92.20
5210;DHT22;2624;48.048;11.706;2022-08-18T10:45:21;23.90;91.90
5210;DHT22;2624;48.048;11.706;2022-08-18T10:50:25;23.90;91.80
5210;DHT22;2624;48.048;11.706;2022-08-18T10:55:51;23.90;91.60
5210;DHT22;2624;48.048;11.706;2022-08-18T11:01:15;24.00;91.50
5210;DHT22;2624;48.048;11.706;2022-08-18T11:06:21;24.10;91.30
5210;DHT22;2624;48.048;11.706;2022-08-18T11:11:32;24.50;91.00
5210;DHT22;2624;48.048;11.706;2022-08-18T11:16:46;25.20;90.50
5210;DHT22;2624;48.048;11.706;2022-08-18T11:21:51;25.30;90.60
5210;DHT22;2624;48.048;11.706;2022-08-18T11:26:56;25.50;88.20
5210;DHT22;2624;48.048;11.706;2022-08-18T11:32:03;25.40;88.90
5210;DHT22;2624;48.048;11.706;2022-08-18T11:37:07;25.40;89.00
5210;DHT22;2624;48.048;11.706;2022-08-18T11:42:14;24.90;90.70
5210;DHT22;2624;48.048;11.706;2022-08-18T11:47:17;25.00;90.30
5210;DHT22;2624;48.048;11.706;2022-08-18T11:52:24;24.90;90.60
5210;DHT22;2624;48.048;11.706;2022-08-18T11:57:38;24.70;90.70
5210;DHT22;2624;48.048;11.706;2022-08-18T12:02:41;24.90;90.50
5210;DHT22;2624;48.048;11.706;2022-08-18T12:07:43;25.30;90.50
5210;DHT22;2624;48.048;11.706;2022-08-18T12:12:47;25.10;90.40
5210;DHT22;2624;48.048;11.706;2022-08-18T12:17:50;25.20;90.10
5210;DHT22;2624;48.048;11.706;2022-08-18T12:22:55;25.50;89.50
5210;DHT22;2624;48.048;11.706;2022-08-18T12:27:58;25.20;90.10
5210;DHT22;2624;48.048;11.706;2022-08-18T12:33:00;25.10;90.20
5210;DHT22;2624;48.048;11.706;2022-08-18T12:38:02;25.10;90.10
5210;DHT22;2624;48.048;11.706;2022-08-18T12:43:05;25.40;90.00
5210;DHT22;2624;48.048;11.706;2022-08-18T12:48:07;25.50;89.60
5210;DHT22;2624;48.048;11.706;2022-08-18T12:53:10;25.40;89.80
5210;DHT22;2624;48.048;11.706;2022-08-18T12:58:13;25.80;90.00
5210;DHT22;2624;48.048;11.706;2022-08-18T13:03:16;25.70;90.00
5210;DHT22;2624;48.048;11.706;2022-08-18T13:08:20;25.70;89.40
5210;DHT22;2624;48.048;11.706;2022-08-18T13:13:23;25.60;89.70
5210;DHT22;2624;48.048;11.706;2022-08-18T13:18:25;25.60;89.90
5210;DHT22;2624;48.048;11.706;2022-08-18T13:23:27;25.60;90.50
5210;DHT22;2624;48.048;11.706;2022-08-18T13:28:32;25.60;90.00
5210;DHT22;2624;48.048;11.706;2022-08-18T13:33:34;25.60;90.40
5210;DHT22;2624;48.048;11.706;2022-08-18T13:38:36;25.70;90.00
5210;DHT22;2624;48.048;11.706;2022-08-18T13:43:43;25.60;90.60
5210;DHT22;2624;48.048;11.706;2022-08-18T13:48:45;25.60;90.70
5210;DHT22;2624;48.048;11.706;2022-08-18T13:53:47;25.60;90.70
5210;DHT22;2624;48.048;11.706;2022-08-18T13:58:50;25.60;90.30
5210;DHT22;2624;48.048;11.706;2022-08-18T14:03:52;25.60;90.80
5210;DHT22;2624;48.048;11.706;2022-08-18T14:08:54;25.60;90.90
5210;DHT22;2624;48.048;11.706;2022-08-18T14:13:57;25.60;90.70
5210;DHT22;2624;48.048;11.706;2022-08-18T14:18:59;25.60;91.00
5210;DHT22;2624;48.048;11.706;2022-08-18T14:24:19;25.60;90.90
5210;DHT22;2624;48.048;11.706;2022-08-18T14:29:40;25.60;90.90
5210;DHT22;2624;48.048;11.706;2022-08-18T14:34:42;25.50;91.40
5210;DHT22;2624;48.048;11.706;2022-08-18T14:39:45;25.50;91.90
5210;DHT22;2624;48.048;11.706;2022-08-18T14:44:48;25.50;90.80
5210;DHT22;2624;48.048;11.706;2022-08-18T14:49:50;25.60;90.80
5210;DHT22;2624;48.048;11.706;2022-08-18T14:54:52;25.60;91.10
5210;DHT22;2624;48.048;11.706;2022-08-18T14:59:55;25.60;91.00
5210;DHT22;2624;48.048;11.706;2022-08-18T15:04:57;25.60;91.50
5210;DHT22;2624;48.048;11.706;2022-08-18T15:09:59;25.60;91.40
5210;DHT22;2624;48.048;11.706;2022-08-18T15:15:03;25.50;91.30
5210;DHT22;2624;48.048;11.706;2022-08-18T15:20:06;25.40;91.60
5210;DHT22;2624;48.048;11.706;2022-08-18T15:25:08;25.40;91.10
5210;DHT22;2624;48.048;11.706;2022-08-18T15:30:29;25.40;91.40
5210;DHT22;2624;48.048;11.706;2022-08-18T15:35:31;25.40;90.80
5210;DHT22;2624;48.048;11.706;2022-08-18T15:40:34;25.40;91.20
5210;DHT22;2624;48.048;11.706;2022-08-18T15:45:40;25.40;91.00
5210;DHT22;2624;48.048;11.706;2022-08-18T15:50:45;25.40;91.20
5210;DHT22;2624;48.048;11.706;2022-08-18T15:55:48;25.30;91.10
5210;DHT22;2624;48.048;11.706;2022-08-18T16:00:51;25.30;91.20
5210;DHT22;2624;48.048;11.706;2022-08-18T16:05:54;25.30;91.10
5210;DHT22;2624;48.048;11.706;2022-08-18T16:10:56;25.30;91.50
5210;DHT22;2624;48.048;11.706;2022-08-18T16:15:59;25.20;91.70
5210;DHT22;2624;48.048;11.706;2022-08-18T16:21:03;25.20;91.60
5210;DHT22;2624;48.048;11.706;2022-08-18T16:26:06;25.20;91.30
5210;DHT22;2624;48.048;11.706;2022-08-18T16:31:09;25.20;91.40
5210;DHT22;2624;48.048;11.706;2022-08-18T16:36:14;25.20;91.80
5210;DHT22;2624;48.048;11.706;2022-08-18T16:41:17;25.20;91.50
5210;DHT22;2624;48.048;11.706;2022-08-18T16:46:22;25.10;91.50
5210;DHT22;2624;48.048;11.706;2022-08-18T16:51:27;25.10;91.60
5210;DHT22;2624;48.048;11.706;2022-08-18T16:56:30;25.10;91.40
5210;DHT22;2624;48.048;11.706;2022-08-18T17:01:36;25.10;91.50
5210;DHT22;2624;48.048;11.706;2022-08-18T17:06:56;25.10;91.60
5210;DHT22;2624;48.048;11.706;2022-08-18T17:11:58;25.10;91.70
5210;DHT22;2624;48.048;11.706;2022-08-18T17:17:02;25.10;91.50
5210;DHT22;2624;48.048;11.706;2022-08-18T17:22:05;25.00;91.60
5210;DHT22;2624;48.048;11.706;2022-08-18T17:27:11;25.00;91.60
5210;DHT22;2624;48.048;11.706;2022-08-18T17:32:20;24.80;92.60
5210;DHT22;2624;48.048;11.706;2022-08-18T17:37:24;24.80;92.70
5210;DHT22;2624;48.048;11.706;2022-08-18T17:42:27;24.70;93.30
5210;DHT22;2624;48.048;11.706;2022-08-18T17:47:44;24.50;95.70
5210;DHT22;2624;48.048;11.706;2022-08-18T17:52:54;24.30;96.10
5210;DHT22;2624;48.048;11.706;2022-08-18T17:58:00;24.40;94.50
5210;DHT22;2624;48.048;11.706;2022-08-18T18:03:05;24.50;94.30
5210;DHT22;2624;48.048;11.706;2022-08-18T18:08:08;24.30;94.40
5210;DHT22;2624;48.048;11.706;2022-08-18T18:13:22;24.50;93.60
5210;DHT22;2624;48.048;11.706;2022-08-18T18:18:33;24.40;92.80
5210;DHT22;2624;48.048;11.706;2022-08-18T18:23:38;24.30;92.70
5210;DHT22;2624;48.048;11.706;2022-08-18T18:28:41;24.30;92.80
5210;DHT22;2624;48.048;11.706;2022-08-18T18:33:44;24.30;93.00
5210;DHT22;2624;48.048;11.706;2022-08-18T18:38:46;23.90;94.60
5210;DHT22;2624;48.048;11.706;2022-08-18T18:44:06;23.90;94.60
5210;DHT22;2624;48.048;11.706;2022-08-18T18:49:16;23.60;95.50
5210;DHT22;2624;48.048;11.706;2022-08-18T18:54:33;23.60;95.60
5210;DHT22;2624;48.048;11.706;2022-08-18T18:59:54;23.70;95.40
5210;DHT22;2624;48.048;11.706;2022-08-18T19:05:11;23.80;95.00
5210;DHT22;2624;48.048;11.706;2022-08-18T19:10:22;23.50;95.50
5210;DHT22;2624;48.048;11.706;2022-08-18T19:15:26;23.40;95.50
5210;DHT22;2624;48.048;11.706;2022-08-18T19:20:35;23.40;95.50
5210;DHT22;2624;48.048;11.706;2022-08-18T19:25:41;23.10;95.50
5210;DHT22;2624;48.048;11.706;2022-08-18T19:30:47;23.10;95.50
5210;DHT22;2624;48.048;11.706;2022-08-18T19:35:54;23.20;95.10
5210;DHT22;2624;48.048;11.706;2022-08-18T19:41:03;23.00;95.20
5210;DHT22;2624;48.048;11.706;2022-08-18T19:46:13;22.70;95.90
5210;DHT22;2624;48.048;11.706;2022-08-18T19:51:23;22.80;95.50
5210;DHT22;2624;48.048;11.706;2022-08-18T19:56:40;22.80;95.00
5210;DHT22;2624;48.048;11.706;2022-08-18T20:01:57;22.60;95.40
5210;DHT22;2624;48.048;11.706;2022-08-18T20:07:14;22.70;95.10
5210;DHT22;2624;48.048;11.706;2022-08-18T20:12:41;22.60;96.20
5210;DHT22;2624;48.048;11.706;2022-08-18T20:18:17;22.60;96.30
5210;DHT22;2624;48.048;11.706;2022-08-18T20:23:33;22.50;96.90
5210;DHT22;2624;48.048;11.706;2022-08-18T20:28:38;22.20;97.30
5210;DHT22;2624;48.048;11.706;2022-08-18T20:33:45;22.00;97.90
5210;DHT22;2624;48.048;11.706;2022-08-18T20:38:50;22.10;97.60
5210;DHT22;2624;48.048;11.706;2022-08-18T20:44:07;21.80;98.20
5210;DHT22;2624;48.048;11.706;2022-08-18T20:49:21;22.30;97.00
5210;DHT22;2624;48.048;11.706;2022-08-18T20:54:39;21.90;98.10
5210;DHT22;2624;48.048;11.706;2022-08-18T20:59:51;22.10;97.30
5210;DHT22;2624;48.048;11.706;2022-08-18T21:04:55;22.10;97.80
5210;DHT22;2624;48.048;11.706;2022-08-18T21:10:03;21.80;99.10
5210;DHT22;2624;48.048;11.706;2022-08-18T21:15:08;21.90;98.80
5210;DHT22;2624;48.048;11.706;2022-08-18T21:20:14;21.90;98.70
5210;DHT22;2624;48.048;11.706;2022-08-18T21:25:18;21.80;99.80
5210;DHT22;2624;48.048;11.706;2022-08-18T21:30:22;21.40;99.90
5210;DHT22;2624;48.048;11.706;2022-08-18T21:35:27;21.30;99.90
5210;DHT22;2624;48.048;11.706;2022-08-18T21:40:36;21.40;99.90
5210;DHT22;2624;48.048;11.706;2022-08-18T21:45:42;21.80;99.60
5210;DHT22;2624;48.048;11.706;2022-08-18T21:50:49;21.40;99.90
5210;DHT22;2624;48.048;11.706;2022-08-18T21:55:53;21.10;99.90
5210;DHT22;2624;48.048;11.706;2022-08-18T22:01:11;21.20;99.90
5210;DHT22;2624;48.048;11.706;2022-08-18T22:06:23;21.50;99.90
5210;DHT22;2624;48.048;11.706;2022-08-18T22:11:30;21.70;99.50
5210;DHT22;2624;48.048;11.706;2022-08-18T22:16:50;21.70;99.20
5210;DHT22;2624;48.048;11.706;2022-08-18T22:21:58;21.60;99.90
5210;DHT22;2624;48.048;11.706;2022-08-18T22:27:07;21.50;99.90
5210;DHT22;2624;48.048;11.706;2022-08-18T22:32:10;21.40;99.90
5210;DHT22;2624;48.048;11.706;2022-08-18T22:37:15;21.40;99.90
5210;DHT22;2624;48.048;11.706;2022-08-18T22:42:20;21.20;99.90
5210;DHT22;2624;48.048;11.706;2022-08-18T22:47:22;20.90;99.90
5210;DHT22;2624;48.048;11.706;2022-08-18T22:52:25;20.80;99.90
5210;DHT22;2624;48.048;11.706;2022-08-18T22:57:29;21.10;99.90
5210;DHT22;2624;48.048;11.706;2022-08-18T23:02:33;21.10;99.90
5210;DHT22;2624;48.048;11.706;2022-08-18T23:07:35;21.20;99.90
5210;DHT22;2624;48.048;11.706;2022-08-18T23:12:38;21.30;99.90
5210;DHT22;2624;48.048;11.706;2022-08-18T23:17:41;21.10;99.90
5210;DHT22;2624;48.048;11.706;2022-08-18T23:22:43;21.30;99.40
5210;DHT22;2624;48.048;11.706;2022-08-18T23:27:46;21.30;99.90
5210;DHT22;2624;48.048;11.706;2022-08-18T23:32:48;21.00;99.90
5210;DHT22;2624;48.048;11.706;2022-08-18T23:37:50;20.70;99.90
5210;DHT22;2624;48.048;11.706;2022-08-18T23:42:53;20.90;99.90
5210;DHT22;2624;48.048;11.706;2022-08-18T23:47:55;21.00;99.90
5210;DHT22;2624;48.048;11.706;2022-08-18T23:52:58;21.00;99.90
5210;DHT22;2624;48.048;11.706;2022-08-18T23:58:02;21.00;99.90
